sensor_id;sensor_type;location;lat;lon;timestamp;P1;durP1;ratioP1;P2;durP2;ratioP2
7205;SDS011;3644;53.480;10.004;2024-03-23T06:36:39;18.10;;;4.20;;
7205;SDS011;3644;53.480;10.004;2024-03-23T06:39:04;12.40;;;3.40;;
7205;SDS011;3644;53.480;10.004;2024-03-23T06:41:30;17.83;;;4.23;;
7205;SDS011;3644;53.480;10.004;2024-03-23T06:43:55;18.20;;;3.90;;
7205;SDS011;3644;53.480;10.004;2024-03-23T06:46:21;19.57;;;3.80;;
7205;SDS011;3644;53.480;10.004;2024-03-23T06:48:46;18.90;;;6.57;;
7205;SDS011;3644;53.480;10.004;2024-03-23T06:51:12;12.53;;;3.40;;
7205;SDS011;3644;53.480;10.004;2024-03-23T06:53:37;21.03;;;4.50;;
7205;SDS011;3644;53.480;10.004;2024-03-23T06:56:03;19.80;;;5.20;;
7205;SDS011;3644;53.480;10.004;2024-03-23T06:58:28;11.27;;;4.00;;
7205;SDS011;3644;53.480;10.004;2024-03-23T07:00:54;16.83;;;3.50;;
7205;SDS011;3644;53.480;10.004;2024-03-23T07:03:20;16.10;;;3.70;;
7205;SDS011;3644;53.480;10.004;2024-03-23T07:05:46;12.73;;;3.87;;
7205;SDS011;3644;53.480;10.004;2024-03-23T07:08:12;23.43;;;3.73;;
7205;SDS011;3644;53.480;10.004;2024-03-23T07:10:41;10.90;;;2.70;;
7205;SDS011;3644;53.480;10.004;2024-03-23T07:13:06;19.80;;;4.00;;
7205;SDS011;3644;53.480;10.004;2024-03-23T07:15:32;10.27;;;3.53;;
7205;SDS011;3644;53.480;10.004;2024-03-23T07:17:58;15.00;;;4.13;;
7205;SDS011;3644;53.480;10.004;2024-03-23T07:20:23;8.80;;;4.13;;
7205;SDS011;3644;53.480;10.004;2024-03-23T07:22:49;19.57;;;3.80;;
7205;SDS011;3644;53.480;10.004;2024-03-23T07:25:14;10.33;;;2.90;;
7205;SDS011;3644;53.480;10.004;2024-03-23T07:27:40;11.87;;;3.67;;
7205;SDS011;3644;53.480;10.004;2024-03-23T07:30:06;10.10;;;3.60;;
7205;SDS011;3644;53.480;10.004;2024-03-23T07:32:32;10.63;;;3.53;;
7205;SDS011;3644;53.480;10.004;2024-03-23T07:34:58;20.73;;;4.40;;
7205;SDS011;3644;53.480;10.004;2024-03-23T07:37:23;16.20;;;3.60;;
7205;SDS011;3644;53.480;10.004;2024-03-23T07:39:49;17.53;;;3.57;;
7205;SDS011;3644;53.480;10.004;2024-03-23T07:42:14;11.20;;;3.83;;
7205;SDS011;3644;53.480;10.004;2024-03-23T07:44:40;7.07;;;3.50;;
7205;SDS011;3644;53.480;10.004;2024-03-23T07:47:06;17.93;;;3.50;;
7205;SDS011;3644;53.480;10.004;2024-03-23T07:49:32;12.33;;;3.43;;
7205;SDS011;3644;53.480;10.004;2024-03-23T07:51:57;25.33;;;3.47;;
7205;SDS011;3644;53.480;10.004;2024-03-23T07:54:23;20.17;;;3.00;;
7205;SDS011;3644;53.480;10.004;2024-03-23T07:56:48;13.63;;;3.60;;
7205;SDS011;3644;53.480;10.004;2024-03-23T07:59:14;12.13;;;2.87;;
7205;SDS011;3644;53.480;10.004;2024-03-23T08:01:39;10.30;;;3.83;;
7205;SDS011;3644;53.480;10.004;2024-03-23T08:04:05;8.90;;;3.50;;
7205;SDS011;3644;53.480;10.004;2024-03-23T08:06:31;15.87;;;3.83;;
7205;SDS011;3644;53.480;10.004;2024-03-23T08:08:56;12.17;;;3.17;;
7205;SDS011;3644;53.480;10.004;2024-03-23T08:11:29;20.63;;;3.50;;
7205;SDS011;3644;53.480;10.004;2024-03-23T08:13:56;16.47;;;3.53;;
7205;SDS011;3644;53.480;10.004;2024-03-23T08:16:22;11.97;;;3.43;;
7205;SDS011;3644;53.480;10.004;2024-03-23T08:18:47;19.77;;;4.20;;
7205;SDS011;3644;53.480;10.004;2024-03-23T08:21:13;7.90;;;2.83;;
7205;SDS011;3644;53.480;10.004;2024-03-23T08:23:39;6.43;;;2.77;;
7205;SDS011;3644;53.480;10.004;2024-03-23T08:26:09;20.77;;;3.47;;
7205;SDS011;3644;53.480;10.004;2024-03-23T08:28:37;15.10;;;3.67;;
7205;SDS011;3644;53.480;10.004;2024-03-23T08:31:04;9.23;;;3.20;;
7205;SDS011;3644;53.480;10.004;2024-03-23T08:33:31;13.87;;;3.80;;
7205;SDS011;3644;53.480;10.004;2024-03-23T08:35:58;9.10;;;3.37;;
7205;SDS011;3644;53.480;10.004;2024-03-23T08:38:25;6.27;;;2.97;;
7205;SDS011;3644;53.480;10.004;2024-03-23T08:40:58;20.50;;;4.73;;
7205;SDS011;3644;53.480;10.004;2024-03-23T08:43:24;10.63;;;3.83;;
7205;SDS011;3644;53.480;10.004;2024-03-23T08:45:50;10.13;;;3.20;;
7205;SDS011;3644;53.480;10.004;2024-03-23T08:48:17;10.90;;;3.37;;
7205;SDS011;3644;53.480;10.004;2024-03-23T08:50:43;13.50;;;3.53;;
7205;SDS011;3644;53.480;10.004;2024-03-23T08:53:08;5.00;;;2.60;;
7205;SDS011;3644;53.480;10.004;2024-03-23T08:55:34;16.83;;;3.17;;
7205;SDS011;3644;53.480;10.004;2024-03-23T08:58:00;13.60;;;4.13;;
7205;SDS011;3644;53.480;10.004;2024-03-23T09:00:26;21.63;;;3.13;;
7205;SDS011;3644;53.480;10.004;2024-03-23T09:02:51;7.80;;;3.27;;
7205;SDS011;3644;53.480;10.004;2024-03-23T09:05:17;18.03;;;2.53;;
7205;SDS011;3644;53.480;10.004;2024-03-23T09:07:43;7.50;;;3.33;;
7205;SDS011;3644;53.480;10.004;2024-03-23T09:10:08;16.70;;;3.03;;
7205;SDS011;3644;53.480;10.004;2024-03-23T09:12:34;15.80;;;3.50;;
7205;SDS011;3644;53.480;10.004;2024-03-23T09:14:59;20.60;;;3.90;;
7205;SDS011;3644;53.480;10.004;2024-03-23T09:17:25;9.17;;;3.13;;
7205;SDS011;3644;53.480;10.004;2024-03-23T09:19:50;12.43;;;3.23;;
7205;SDS011;3644;53.480;10.004;2024-03-23T09:22:16;11.27;;;3.40;;
7205;SDS011;3644;53.480;10.004;2024-03-23T09:24:41;13.73;;;2.80;;
7205;SDS011;3644;53.480;10.004;2024-03-23T09:27:07;6.83;;;3.00;;
7205;SDS011;3644;53.480;10.004;2024-03-23T09:29:33;16.10;;;2.40;;
7205;SDS011;3644;53.480;10.004;2024-03-23T09:31:58;9.80;;;2.50;;
7205;SDS011;3644;53.480;10.004;2024-03-23T09:34:24;3.80;;;2.23;;
7205;SDS011;3644;53.480;10.004;2024-03-23T09:36:52;18.33;;;2.43;;
7205;SDS011;3644;53.480;10.004;2024-03-23T09:39:18;16.03;;;3.13;;
7205;SDS011;3644;53.480;10.004;2024-03-23T09:41:44;13.33;;;2.70;;
7205;SDS011;3644;53.480;10.004;2024-03-23T09:44:10;14.90;;;3.10;;
7205;SDS011;3644;53.480;10.004;2024-03-23T09:46:35;3.00;;;2.03;;
7205;SDS011;3644;53.480;10.004;2024-03-23T09:49:01;9.47;;;2.90;;
7205;SDS011;3644;53.480;10.004;2024-03-23T09:51:29;12.00;;;3.00;;
7205;SDS011;3644;53.480;10.004;2024-03-23T09:53:55;6.83;;;1.93;;
7205;SDS011;3644;53.480;10.004;2024-03-23T09:56:21;3.97;;;1.80;;
7205;SDS011;3644;53.480;10.004;2024-03-23T09:58:48;13.57;;;2.40;;
7205;SDS011;3644;53.480;10.004;2024-03-23T10:01:14;9.63;;;2.03;;
7205;SDS011;3644;53.480;10.004;2024-03-23T10:03:43;6.27;;;2.17;;
7205;SDS011;3644;53.480;10.004;2024-03-23T10:06:09;9.77;;;2.70;;
7205;SDS011;3644;53.480;10.004;2024-03-23T10:08:35;12.67;;;2.40;;
7205;SDS011;3644;53.480;10.004;2024-03-23T10:11:12;5.23;;;2.17;;
7205;SDS011;3644;53.480;10.004;2024-03-23T10:13:42;6.83;;;2.10;;
7205;SDS011;3644;53.480;10.004;2024-03-23T10:16:09;13.07;;;2.40;;
7205;SDS011;3644;53.480;10.004;2024-03-23T10:18:38;9.57;;;2.00;;
7205;SDS011;3644;53.480;10.004;2024-03-23T10:23:34;10.77;;;1.97;;
7205;SDS011;3644;53.480;10.004;2024-03-23T10:28:52;5.23;;;2.13;;
7205;SDS011;3644;53.480;10.004;2024-03-23T10:31:23;9.93;;;3.03;;
7205;SDS011;3644;53.480;10.004;2024-03-23T10:33:48;6.47;;;1.83;;
7205;SDS011;3644;53.480;10.004;2024-03-23T10:36:14;2.40;;;2.07;;
7205;SDS011;3644;53.480;10.004;2024-03-23T10:38:41;10.30;;;2.07;;
7205;SDS011;3644;53.480;10.004;2024-03-23T10:41:08;6.50;;;1.93;;
7205;SDS011;3644;53.480;10.004;2024-03-23T10:43:35;14.00;;;3.00;;
7205;SDS011;3644;53.480;10.004;2024-03-23T10:46:01;6.67;;;2.17;;
7205;SDS011;3644;53.480;10.004;2024-03-23T10:48:27;5.63;;;2.00;;
7205;SDS011;3644;53.480;10.004;2024-03-23T10:50:53;2.70;;;1.67;;
7205;SDS011;3644;53.480;10.004;2024-03-23T10:53:19;6.40;;;2.27;;
7205;SDS011;3644;53.480;10.004;2024-03-23T10:55:47;4.53;;;1.87;;
7205;SDS011;3644;53.480;10.004;2024-03-23T10:58:14;8.57;;;2.20;;
7205;SDS011;3644;53.480;10.004;2024-03-23T11:00:40;11.47;;;3.80;;
7205;SDS011;3644;53.480;10.004;2024-03-23T11:03:29;12.47;;;4.00;;
7205;SDS011;3644;53.480;10.004;2024-03-23T11:05:55;14.40;;;5.70;;
7205;SDS011;3644;53.480;10.004;2024-03-23T11:08:29;3.20;;;1.77;;
7205;SDS011;3644;53.480;10.004;2024-03-23T11:11:11;3.13;;;1.53;;
7205;SDS011;3644;53.480;10.004;2024-03-23T11:13:48;8.47;;;2.30;;
7205;SDS011;3644;53.480;10.004;2024-03-23T11:16:15;3.33;;;1.90;;
7205;SDS011;3644;53.480;10.004;2024-03-23T11:18:42;9.53;;;2.70;;
7205;SDS011;3644;53.480;10.004;2024-03-23T11:21:09;4.33;;;2.03;;
7205;SDS011;3644;53.480;10.004;2024-03-23T11:23:35;6.13;;;1.80;;
7205;SDS011;3644;53.480;10.004;2024-03-23T11:26:00;14.43;;;3.80;;
7205;SDS011;3644;53.480;10.004;2024-03-23T11:28:26;18.93;;;3.10;;
7205;SDS011;3644;53.480;10.004;2024-03-23T11:30:51;14.80;;;4.53;;
7205;SDS011;3644;53.480;10.004;2024-03-23T11:33:17;5.80;;;2.17;;
7205;SDS011;3644;53.480;10.004;2024-03-23T11:35:43;9.57;;;4.63;;
7205;SDS011;3644;53.480;10.004;2024-03-23T11:38:12;20.13;;;6.30;;
7205;SDS011;3644;53.480;10.004;2024-03-23T11:40:46;6.53;;;2.80;;
7205;SDS011;3644;53.480;10.004;2024-03-23T11:43:14;19.70;;;10.40;;
7205;SDS011;3644;53.480;10.004;2024-03-23T11:45:42;17.67;;;7.50;;
7205;SDS011;3644;53.480;10.004;2024-03-23T11:48:13;12.47;;;6.13;;
7205;SDS011;3644;53.480;10.004;2024-03-23T11:50:44;12.57;;;5.40;;
7205;SDS011;3644;53.480;10.004;2024-03-23T11:56:10;6.63;;;2.93;;
7205;SDS011;3644;53.480;10.004;2024-03-23T11:58:28;11.87;;;3.97;;
7205;SDS011;3644;53.480;10.004;2024-03-23T12:01:00;17.40;;;8.50;;
7205;SDS011;3644;53.480;10.004;2024-03-23T12:03:28;11.70;;;4.30;;
7205;SDS011;3644;53.480;10.004;2024-03-23T12:06:01;14.60;;;4.73;;
7205;SDS011;3644;53.480;10.004;2024-03-23T12:08:30;18.70;;;9.20;;
7205;SDS011;3644;53.480;10.004;2024-03-23T12:11:13;4.33;;;2.30;;
7205;SDS011;3644;53.480;10.004;2024-03-23T12:13:40;5.53;;;1.97;;
7205;SDS011;3644;53.480;10.004;2024-03-23T12:16:20;9.00;;;2.60;;
7205;SDS011;3644;53.480;10.004;2024-03-23T12:18:49;2.67;;;1.57;;
7205;SDS011;3644;53.480;10.004;2024-03-23T12:21:16;5.13;;;2.00;;
7205;SDS011;3644;53.480;10.004;2024-03-23T12:23:42;10.20;;;1.90;;
7205;SDS011;3644;53.480;10.004;2024-03-23T12:26:13;2.03;;;1.20;;
7205;SDS011;3644;53.480;10.004;2024-03-23T12:28:39;2.13;;;1.40;;
7205;SDS011;3644;53.480;10.004;2024-03-23T12:31:04;5.90;;;1.20;;
7205;SDS011;3644;53.480;10.004;2024-03-23T12:33:30;4.43;;;1.40;;
7205;SDS011;3644;53.480;10.004;2024-03-23T12:35:56;4.03;;;1.23;;
7205;SDS011;3644;53.480;10.004;2024-03-23T12:38:21;5.90;;;1.60;;
7205;SDS011;3644;53.480;10.004;2024-03-23T12:40:47;2.23;;;1.33;;
7205;SDS011;3644;53.480;10.004;2024-03-23T12:43:14;4.80;;;1.40;;
7205;SDS011;3644;53.480;10.004;2024-03-23T12:45:40;6.40;;;2.30;;
7205;SDS011;3644;53.480;10.004;2024-03-23T12:48:05;5.10;;;1.10;;
7205;SDS011;3644;53.480;10.004;2024-03-23T12:50:31;2.83;;;1.47;;
7205;SDS011;3644;53.480;10.004;2024-03-23T12:52:57;6.40;;;1.27;;
7205;SDS011;3644;53.480;10.004;2024-03-23T12:55:22;6.47;;;1.70;;
7205;SDS011;3644;53.480;10.004;2024-03-23T12:57:48;2.60;;;1.47;;
7205;SDS011;3644;53.480;10.004;2024-03-23T13:00:14;5.50;;;1.70;;
7205;SDS011;3644;53.480;10.004;2024-03-23T13:02:41;1.97;;;1.87;;
7205;SDS011;3644;53.480;10.004;2024-03-23T13:05:07;2.00;;;1.30;;
7205;SDS011;3644;53.480;10.004;2024-03-23T13:07:35;7.70;;;1.57;;
7205;SDS011;3644;53.480;10.004;2024-03-23T13:10:02;3.57;;;1.47;;
7205;SDS011;3644;53.480;10.004;2024-03-23T13:12:28;11.20;;;1.77;;
7205;SDS011;3644;53.480;10.004;2024-03-23T13:14:54;3.13;;;1.57;;
7205;SDS011;3644;53.480;10.004;2024-03-23T13:17:19;1.90;;;1.50;;
7205;SDS011;3644;53.480;10.004;2024-03-23T13:19:45;3.40;;;2.10;;
7205;SDS011;3644;53.480;10.004;2024-03-23T13:22:10;1.87;;;1.50;;
7205;SDS011;3644;53.480;10.004;2024-03-23T13:24:38;1.50;;;1.40;;
7205;SDS011;3644;53.480;10.004;2024-03-23T13:27:04;2.93;;;1.47;;
7205;SDS011;3644;53.480;10.004;2024-03-23T13:29:33;3.70;;;1.20;;
7205;SDS011;3644;53.480;10.004;2024-03-23T13:32:00;3.87;;;2.00;;
7205;SDS011;3644;53.480;10.004;2024-03-23T13:34:25;3.20;;;2.73;;
7205;SDS011;3644;53.480;10.004;2024-03-23T13:36:51;4.60;;;4.10;;
7205;SDS011;3644;53.480;10.004;2024-03-23T13:39:16;2.40;;;2.13;;
7205;SDS011;3644;53.480;10.004;2024-03-23T13:41:43;8.90;;;4.43;;
7205;SDS011;3644;53.480;10.004;2024-03-23T13:44:10;3.47;;;2.40;;
7205;SDS011;3644;53.480;10.004;2024-03-23T13:46:37;2.40;;;2.20;;
7205;SDS011;3644;53.480;10.004;2024-03-23T13:49:03;3.90;;;3.30;;
7205;SDS011;3644;53.480;10.004;2024-03-23T13:51:29;3.77;;;2.60;;
7205;SDS011;3644;53.480;10.004;2024-03-23T13:53:55;6.90;;;3.50;;
7205;SDS011;3644;53.480;10.004;2024-03-23T13:56:22;6.00;;;2.50;;
7205;SDS011;3644;53.480;10.004;2024-03-23T13:58:47;10.40;;;6.30;;
7205;SDS011;3644;53.480;10.004;2024-03-23T14:01:14;1.83;;;1.73;;
7205;SDS011;3644;53.480;10.004;2024-03-23T14:03:40;3.67;;;1.93;;
7205;SDS011;3644;53.480;10.004;2024-03-23T14:06:07;10.40;;;2.70;;
7205;SDS011;3644;53.480;10.004;2024-03-23T14:08:33;3.50;;;1.60;;
7205;SDS011;3644;53.480;10.004;2024-03-23T14:11:01;3.70;;;2.70;;
7205;SDS011;3644;53.480;10.004;2024-03-23T14:13:27;2.50;;;1.87;;
7205;SDS011;3644;53.480;10.004;2024-03-23T14:15:54;4.43;;;1.70;;
7205;SDS011;3644;53.480;10.004;2024-03-23T14:18:19;3.20;;;1.97;;
7205;SDS011;3644;53.480;10.004;2024-03-23T14:20:45;2.50;;;1.70;;
7205;SDS011;3644;53.480;10.004;2024-03-23T14:23:10;1.70;;;1.60;;
7205;SDS011;3644;53.480;10.004;2024-03-23T14:25:36;5.17;;;2.73;;
7205;SDS011;3644;53.480;10.004;2024-03-23T14:28:01;8.00;;;1.87;;
7205;SDS011;3644;53.480;10.004;2024-03-23T14:30:27;8.23;;;1.53;;
7205;SDS011;3644;53.480;10.004;2024-03-23T14:32:52;1.03;;;1.03;;
7205;SDS011;3644;53.480;10.004;2024-03-23T14:35:18;1.60;;;1.40;;
7205;SDS011;3644;53.480;10.004;2024-03-23T14:37:43;5.20;;;1.57;;
7205;SDS011;3644;53.480;10.004;2024-03-23T14:40:09;2.27;;;1.20;;
7205;SDS011;3644;53.480;10.004;2024-03-23T14:42:37;1.33;;;1.23;;
7205;SDS011;3644;53.480;10.004;2024-03-23T14:45:03;4.50;;;1.50;;
7205;SDS011;3644;53.480;10.004;2024-03-23T14:47:30;2.27;;;1.80;;
7205;SDS011;3644;53.480;10.004;2024-03-23T14:49:56;2.30;;;1.50;;
7205;SDS011;3644;53.480;10.004;2024-03-23T14:52:23;3.33;;;1.57;;
7205;SDS011;3644;53.480;10.004;2024-03-23T14:54:49;4.93;;;1.23;;
7205;SDS011;3644;53.480;10.004;2024-03-23T14:57:14;4.03;;;1.40;;
7205;SDS011;3644;53.480;10.004;2024-03-23T14:59:40;3.27;;;1.30;;
7205;SDS011;3644;53.480;10.004;2024-03-23T15:02:06;1.80;;;1.70;;
7205;SDS011;3644;53.480;10.004;2024-03-23T15:04:34;1.90;;;1.30;;
7205;SDS011;3644;53.480;10.004;2024-03-23T15:07:00;2.87;;;1.43;;
7205;SDS011;3644;53.480;10.004;2024-03-23T15:09:26;6.53;;;1.73;;
7205;SDS011;3644;53.480;10.004;2024-03-23T15:11:51;5.03;;;1.80;;
7205;SDS011;3644;53.480;10.004;2024-03-23T15:14:17;6.13;;;1.93;;
7205;SDS011;3644;53.480;10.004;2024-03-23T15:16:42;2.20;;;1.53;;
7205;SDS011;3644;53.480;10.004;2024-03-23T15:19:08;3.37;;;1.30;;
7205;SDS011;3644;53.480;10.004;2024-03-23T15:21:34;3.87;;;1.90;;
7205;SDS011;3644;53.480;10.004;2024-03-23T15:23:59;3.90;;;1.53;;
7205;SDS011;3644;53.480;10.004;2024-03-23T15:26:25;3.63;;;1.77;;
7205;SDS011;3644;53.480;10.004;2024-03-23T15:28:50;2.87;;;1.60;;
7205;SDS011;3644;53.480;10.004;2024-03-23T15:31:22;3.93;;;1.90;;
7205;SDS011;3644;53.480;10.004;2024-03-23T15:33:47;3.97;;;2.00;;
7205;SDS011;3644;53.480;10.004;2024-03-23T15:36:13;1.57;;;1.47;;
7205;SDS011;3644;53.480;10.004;2024-03-23T15:38:38;1.50;;;1.40;;
7205;SDS011;3644;53.480;10.004;2024-03-23T15:41:04;2.77;;;1.33;;
7205;SDS011;3644;53.480;10.004;2024-03-23T15:43:30;3.53;;;1.83;;
7205;SDS011;3644;53.480;10.004;2024-03-23T15:46:03;2.40;;;1.43;;
7205;SDS011;3644;53.480;10.004;2024-03-23T15:48:29;4.53;;;1.40;;
7205;SDS011;3644;53.480;10.004;2024-03-23T15:50:57;5.60;;;2.60;;
7205;SDS011;3644;53.480;10.004;2024-03-23T15:53:24;2.83;;;1.63;;
7205;SDS011;3644;53.480;10.004;2024-03-23T15:55:54;2.17;;;1.90;;
7205;SDS011;3644;53.480;10.004;2024-03-23T15:58:24;2.03;;;1.83;;
7205;SDS011;3644;53.480;10.004;2024-03-23T16:01:08;1.80;;;1.70;;
7205;SDS011;3644;53.480;10.004;2024-03-23T16:03:35;3.37;;;1.70;;
7205;SDS011;3644;53.480;10.004;2024-03-23T16:06:02;9.17;;;2.70;;
7205;SDS011;3644;53.480;10.004;2024-03-23T16:08:28;5.43;;;3.10;;
7205;SDS011;3644;53.480;10.004;2024-03-23T16:10:59;3.03;;;1.70;;
7205;SDS011;3644;53.480;10.004;2024-03-23T16:13:25;2.30;;;1.50;;
7205;SDS011;3644;53.480;10.004;2024-03-23T16:18:31;3.67;;;1.67;;
7205;SDS011;3644;53.480;10.004;2024-03-23T16:20:57;2.30;;;2.10;;
7205;SDS011;3644;53.480;10.004;2024-03-23T16:23:24;1.37;;;1.27;;
7205;SDS011;3644;53.480;10.004;2024-03-23T16:25:51;3.47;;;1.33;;
7205;SDS011;3644;53.480;10.004;2024-03-23T16:28:22;3.60;;;1.97;;
7205;SDS011;3644;53.480;10.004;2024-03-23T16:31:00;1.13;;;1.03;;
7205;SDS011;3644;53.480;10.004;2024-03-23T16:33:28;4.10;;;1.23;;
7205;SDS011;3644;53.480;10.004;2024-03-23T16:38:23;1.60;;;1.47;;
7205;SDS011;3644;53.480;10.004;2024-03-23T16:40:55;1.77;;;1.20;;
7205;SDS011;3644;53.480;10.004;2024-03-23T16:43:32;3.90;;;1.60;;
7205;SDS011;3644;53.480;10.004;2024-03-23T16:46:02;1.10;;;1.00;;
7205;SDS011;3644;53.480;10.004;2024-03-23T16:48:29;4.57;;;1.73;;
7205;SDS011;3644;53.480;10.004;2024-03-23T16:50:56;5.23;;;1.80;;
7205;SDS011;3644;53.480;10.004;2024-03-23T16:53:23;6.37;;;1.63;;
7205;SDS011;3644;53.480;10.004;2024-03-23T16:56:00;1.43;;;1.20;;
7205;SDS011;3644;53.480;10.004;2024-03-23T16:58:31;21.20;;;7.23;;
7205;SDS011;3644;53.480;10.004;2024-03-23T17:01:04;44.17;;;9.40;;
7205;SDS011;3644;53.480;10.004;2024-03-23T17:03:43;36.50;;;13.83;;
7205;SDS011;3644;53.480;10.004;2024-03-23T17:06:12;11.20;;;4.73;;
7205;SDS011;3644;53.480;10.004;2024-03-23T17:08:40;6.57;;;3.67;;
7205;SDS011;3644;53.480;10.004;2024-03-23T17:11:05;15.47;;;6.00;;
7205;SDS011;3644;53.480;10.004;2024-03-23T17:13:31;18.73;;;6.77;;
7205;SDS011;3644;53.480;10.004;2024-03-23T17:15:57;11.53;;;4.60;;
7205;SDS011;3644;53.480;10.004;2024-03-23T17:18:23;15.57;;;7.27;;
7205;SDS011;3644;53.480;10.004;2024-03-23T17:20:49;4.93;;;2.23;;
7205;SDS011;3644;53.480;10.004;2024-03-23T17:23:22;2.10;;;1.63;;
7205;SDS011;3644;53.480;10.004;2024-03-23T17:25:48;7.10;;;2.20;;
7205;SDS011;3644;53.480;10.004;2024-03-23T17:28:14;3.67;;;3.07;;
7205;SDS011;3644;53.480;10.004;2024-03-23T17:30:40;3.50;;;2.67;;
7205;SDS011;3644;53.480;10.004;2024-03-23T17:33:06;2.70;;;1.93;;
7205;SDS011;3644;53.480;10.004;2024-03-23T17:35:32;6.27;;;3.67;;
7205;SDS011;3644;53.480;10.004;2024-03-23T17:37:58;2.70;;;2.00;;
7205;SDS011;3644;53.480;10.004;2024-03-23T17:40:23;2.63;;;1.93;;
7205;SDS011;3644;53.480;10.004;2024-03-23T17:42:49;3.90;;;1.73;;
7205;SDS011;3644;53.480;10.004;2024-03-23T17:45:14;7.37;;;2.10;;
7205;SDS011;3644;53.480;10.004;2024-03-23T17:47:41;2.47;;;1.80;;
7205;SDS011;3644;53.480;10.004;2024-03-23T17:50:07;2.70;;;2.27;;
7205;SDS011;3644;53.480;10.004;2024-03-23T17:52:33;4.07;;;1.87;;
7205;SDS011;3644;53.480;10.004;2024-03-23T17:55:00;6.57;;;2.30;;
7205;SDS011;3644;53.480;10.004;2024-03-23T17:57:26;4.93;;;1.90;;
7205;SDS011;3644;53.480;10.004;2024-03-23T17:59:52;4.73;;;2.10;;
7205;SDS011;3644;53.480;10.004;2024-03-23T18:02:17;2.57;;;1.80;;
7205;SDS011;3644;53.480;10.004;2024-03-23T18:04:45;2.80;;;1.63;;
7205;SDS011;3644;53.480;10.004;2024-03-23T18:07:11;10.90;;;4.25;;
7205;SDS011;3644;53.480;10.004;2024-03-23T18:09:37;8.80;;;4.40;;
7205;SDS011;3644;53.480;10.004;2024-03-23T18:12:03;11.00;;;5.20;;
7205;SDS011;3644;53.480;10.004;2024-03-23T18:14:29;3.03;;;2.20;;
7205;SDS011;3644;53.480;10.004;2024-03-23T18:16:55;3.50;;;3.00;;
7205;SDS011;3644;53.480;10.004;2024-03-23T18:19:20;8.45;;;3.38;;
7205;SDS011;3644;53.480;10.004;2024-03-23T18:21:46;9.90;;;5.23;;
7205;SDS011;3644;53.480;10.004;2024-03-23T18:24:12;21.63;;;9.43;;
7205;SDS011;3644;53.480;10.004;2024-03-23T18:26:37;17.73;;;8.47;;
7205;SDS011;3644;53.480;10.004;2024-03-23T18:29:03;14.20;;;6.43;;
7205;SDS011;3644;53.480;10.004;2024-03-23T18:31:28;13.60;;;4.13;;
7205;SDS011;3644;53.480;10.004;2024-03-23T18:33:54;7.27;;;3.20;;
7205;SDS011;3644;53.480;10.004;2024-03-23T18:36:22;12.03;;;3.60;;
7205;SDS011;3644;53.480;10.004;2024-03-23T18:38:48;9.23;;;3.80;;
7205;SDS011;3644;53.480;10.004;2024-03-23T18:41:14;6.23;;;2.30;;
7205;SDS011;3644;53.480;10.004;2024-03-23T18:43:39;1.80;;;1.70;;
7205;SDS011;3644;53.480;10.004;2024-03-23T18:46:05;6.20;;;2.53;;
7205;SDS011;3644;53.480;10.004;2024-03-23T18:48:30;2.13;;;2.03;;
7205;SDS011;3644;53.480;10.004;2024-03-23T18:50:56;5.67;;;2.90;;
7205;SDS011;3644;53.480;10.004;2024-03-23T18:53:22;10.10;;;5.80;;
7205;SDS011;3644;53.480;10.004;2024-03-23T18:55:52;5.27;;;2.83;;
7205;SDS011;3644;53.480;10.004;2024-03-23T18:58:18;2.90;;;2.27;;
7205;SDS011;3644;53.480;10.004;2024-03-23T19:00:44;5.27;;;2.20;;
7205;SDS011;3644;53.480;10.004;2024-03-23T19:03:10;4.47;;;2.73;;
7205;SDS011;3644;53.480;10.004;2024-03-23T19:05:35;2.93;;;2.73;;
7205;SDS011;3644;53.480;10.004;2024-03-23T19:08:01;2.83;;;2.40;;
7205;SDS011;3644;53.480;10.004;2024-03-23T19:10:26;3.80;;;3.07;;
7205;SDS011;3644;53.480;10.004;2024-03-23T19:12:51;3.20;;;2.20;;
7205;SDS011;3644;53.480;10.004;2024-03-23T19:15:17;6.03;;;3.53;;
7205;SDS011;3644;53.480;10.004;2024-03-23T19:17:42;4.03;;;2.83;;
7205;SDS011;3644;53.480;10.004;2024-03-23T19:20:08;8.80;;;2.70;;
7205;SDS011;3644;53.480;10.004;2024-03-23T19:22:34;4.50;;;2.63;;
7205;SDS011;3644;53.480;10.004;2024-03-23T19:25:00;6.47;;;3.90;;
7205;SDS011;3644;53.480;10.004;2024-03-23T19:27:27;5.77;;;2.73;;
7205;SDS011;3644;53.480;10.004;2024-03-23T19:29:52;4.20;;;2.27;;
7205;SDS011;3644;53.480;10.004;2024-03-23T19:32:18;5.30;;;2.80;;
7205;SDS011;3644;53.480;10.004;2024-03-23T19:34:44;5.30;;;1.88;;
7205;SDS011;3644;53.480;10.004;2024-03-23T19:37:09;14.57;;;3.87;;
7205;SDS011;3644;53.480;10.004;2024-03-23T19:39:35;9.73;;;3.17;;
7205;SDS011;3644;53.480;10.004;2024-03-23T19:42:00;2.57;;;2.17;;
7205;SDS011;3644;53.480;10.004;2024-03-23T19:44:26;2.93;;;2.27;;
7205;SDS011;3644;53.480;10.004;2024-03-23T19:46:51;8.00;;;2.97;;
7205;SDS011;3644;53.480;10.004;2024-03-23T19:49:17;4.13;;;2.50;;
7205;SDS011;3644;53.480;10.004;2024-03-23T19:51:43;5.20;;;2.77;;
7205;SDS011;3644;53.480;10.004;2024-03-23T19:54:09;4.50;;;2.57;;
7205;SDS011;3644;53.480;10.004;2024-03-23T19:56:35;2.20;;;2.00;;
7205;SDS011;3644;53.480;10.004;2024-03-23T19:59:02;3.20;;;2.90;;
7205;SDS011;3644;53.480;10.004;2024-03-23T20:01:28;3.27;;;2.10;;
7205;SDS011;3644;53.480;10.004;2024-03-23T20:03:53;3.53;;;2.40;;
7205;SDS011;3644;53.480;10.004;2024-03-23T20:06:19;5.37;;;2.67;;
7205;SDS011;3644;53.480;10.004;2024-03-23T20:08:45;5.67;;;2.80;;
7205;SDS011;3644;53.480;10.004;2024-03-23T20:11:12;2.57;;;2.37;;
7205;SDS011;3644;53.480;10.004;2024-03-23T20:13:37;2.83;;;2.13;;
7205;SDS011;3644;53.480;10.004;2024-03-23T20:16:03;2.60;;;2.07;;
7205;SDS011;3644;53.480;10.004;2024-03-23T20:18:29;7.40;;;2.43;;
7205;SDS011;3644;53.480;10.004;2024-03-23T20:20:55;3.30;;;2.47;;
7205;SDS011;3644;53.480;10.004;2024-03-23T20:23:23;5.87;;;2.00;;
7205;SDS011;3644;53.480;10.004;2024-03-23T20:25:55;5.40;;;1.83;;
7205;SDS011;3644;53.480;10.004;2024-03-23T20:28:22;1.83;;;1.73;;
7205;SDS011;3644;53.480;10.004;2024-03-23T20:30:58;6.13;;;2.40;;
7205;SDS011;3644;53.480;10.004;2024-03-23T20:33:25;8.50;;;1.90;;
7205;SDS011;3644;53.480;10.004;2024-03-23T20:35:51;4.87;;;2.00;;
7205;SDS011;3644;53.480;10.004;2024-03-23T20:38:17;5.27;;;2.17;;
7205;SDS011;3644;53.480;10.004;2024-03-23T20:40:43;5.30;;;2.70;;
7205;SDS011;3644;53.480;10.004;2024-03-23T20:43:09;2.20;;;2.00;;
7205;SDS011;3644;53.480;10.004;2024-03-23T20:45:36;9.70;;;2.50;;
7205;SDS011;3644;53.480;10.004;2024-03-23T20:48:01;9.90;;;2.70;;
7205;SDS011;3644;53.480;10.004;2024-03-23T20:50:27;7.37;;;2.40;;
7205;SDS011;3644;53.480;10.004;2024-03-23T20:52:53;11.80;;;3.23;;
